sensor_id;sensor_type;location;lat;lon;timestamp;P1;durP1;ratioP1;P2;durP2;ratioP2
12976;SDS011;6553;48.412;9.514;2023-06-24T00:00:08;4.85;;;4.00;;
12976;SDS011;6553;48.412;9.514;2023-06-24T00:02:38;6.95;;;3.70;;
12976;SDS011;6553;48.412;9.514;2023-06-24T00:05:06;8.00;;;3.40;;
12976;SDS011;6553;48.412;9.514;2023-06-24T00:07:33;5.03;;;3.78;;
12976;SDS011;6553;48.412;9.514;2023-06-24T00:10:09;5.20;;;3.60;;
12976;SDS011;6553;48.412;9.514;2023-06-24T00:12:39;4.10;;;3.70;;
12976;SDS011;6553;48.412;9.514;2023-06-24T00:15:06;8.52;;;3.90;;
12976;SDS011;6553;48.412;9.514;2023-06-24T00:17:34;8.52;;;3.50;;
12976;SDS011;6553;48.412;9.514;2023-06-24T00:20:00;10.55;;;3.70;;
12976;SDS011;6553;48.412;9.514;2023-06-24T00:22:29;5.25;;;3.60;;
12976;SDS011;6553;48.412;9.514;2023-06-24T00:24:55;4.55;;;3.80;;
12976;SDS011;6553;48.412;9.514;2023-06-24T00:27:21;4.53;;;3.75;;
12976;SDS011;6553;48.412;9.514;2023-06-24T00:29:47;7.70;;;3.80;;
12976;SDS011;6553;48.412;9.514;2023-06-24T00:32:13;5.45;;;3.60;;
12976;SDS011;6553;48.412;9.514;2023-06-24T00:34:39;6.40;;;3.80;;
12976;SDS011;6553;48.412;9.514;2023-06-24T00:37:12;11.65;;;3.90;;
12976;SDS011;6553;48.412;9.514;2023-06-24T00:39:38;7.75;;;3.47;;
12976;SDS011;6553;48.412;9.514;2023-06-24T00:42:04;5.72;;;3.67;;
12976;SDS011;6553;48.412;9.514;2023-06-24T00:44:31;4.75;;;3.60;;
12976;SDS011;6553;48.412;9.514;2023-06-24T00:47:00;9.00;;;3.72;;
12976;SDS011;6553;48.412;9.514;2023-06-24T00:49:27;6.75;;;3.72;;
12976;SDS011;6553;48.412;9.514;2023-06-24T00:51:52;6.32;;;3.75;;
12976;SDS011;6553;48.412;9.514;2023-06-24T00:54:20;7.15;;;4.07;;
12976;SDS011;6553;48.412;9.514;2023-06-24T00:56:46;8.02;;;3.95;;
12976;SDS011;6553;48.412;9.514;2023-06-24T00:59:14;4.63;;;3.67;;
12976;SDS011;6553;48.412;9.514;2023-06-24T01:01:42;4.35;;;3.78;;
12976;SDS011;6553;48.412;9.514;2023-06-24T01:04:10;6.95;;;3.67;;
12976;SDS011;6553;48.412;9.514;2023-06-24T01:06:36;5.75;;;3.97;;
12976;SDS011;6553;48.412;9.514;2023-06-24T01:09:08;3.70;;;3.40;;
12976;SDS011;6553;48.412;9.514;2023-06-24T01:11:34;5.55;;;3.33;;
12976;SDS011;6553;48.412;9.514;2023-06-24T01:14:00;5.55;;;3.70;;
12976;SDS011;6553;48.412;9.514;2023-06-24T01:16:28;4.72;;;3.85;;
12976;SDS011;6553;48.412;9.514;2023-06-24T01:33:10;4.90;;;3.67;;
12976;SDS011;6553;48.412;9.514;2023-06-24T01:35:44;9.55;;;3.85;;
12976;SDS011;6553;48.412;9.514;2023-06-24T01:38:15;7.68;;;3.90;;
12976;SDS011;6553;48.412;9.514;2023-06-24T01:41:12;6.65;;;3.92;;
12976;SDS011;6553;48.412;9.514;2023-06-24T01:43:43;6.13;;;3.30;;
12976;SDS011;6553;48.412;9.514;2023-06-24T01:46:12;4.45;;;3.70;;
12976;SDS011;6553;48.412;9.514;2023-06-24T01:48:43;3.80;;;3.40;;
12976;SDS011;6553;48.412;9.514;2023-06-24T01:51:11;4.03;;;3.50;;
12976;SDS011;6553;48.412;9.514;2023-06-24T01:53:43;4.22;;;3.28;;
12976;SDS011;6553;48.412;9.514;2023-06-24T01:56:14;4.15;;;3.53;;
12976;SDS011;6553;48.412;9.514;2023-06-24T01:58:45;4.10;;;3.50;;
12976;SDS011;6553;48.412;9.514;2023-06-24T02:01:13;3.88;;;3.47;;
12976;SDS011;6553;48.412;9.514;2023-06-24T02:03:40;4.00;;;3.47;;
12976;SDS011;6553;48.412;9.514;2023-06-24T02:06:07;4.00;;;3.70;;
12976;SDS011;6553;48.412;9.514;2023-06-24T02:08:35;4.15;;;3.20;;
12976;SDS011;6553;48.412;9.514;2023-06-24T02:11:03;3.75;;;3.35;;
12976;SDS011;6553;48.412;9.514;2023-06-24T02:13:31;4.28;;;3.88;;
12976;SDS011;6553;48.412;9.514;2023-06-24T02:16:01;4.03;;;3.72;;
12976;SDS011;6553;48.412;9.514;2023-06-24T02:18:31;3.97;;;3.53;;
12976;SDS011;6553;48.412;9.514;2023-06-24T02:21:02;4.93;;;3.72;;
12976;SDS011;6553;48.412;9.514;2023-06-24T02:23:29;4.63;;;3.38;;
12976;SDS011;6553;48.412;9.514;2023-06-24T02:25:57;8.25;;;3.75;;
12976;SDS011;6553;48.412;9.514;2023-06-24T02:28:26;3.63;;;3.25;;
12976;SDS011;6553;48.412;9.514;2023-06-24T02:30:54;3.95;;;3.55;;
12976;SDS011;6553;48.412;9.514;2023-06-24T02:33:21;4.05;;;3.60;;
12976;SDS011;6553;48.412;9.514;2023-06-24T02:35:47;4.05;;;3.42;;
12976;SDS011;6553;48.412;9.514;2023-06-24T02:38:13;4.47;;;3.35;;
12976;SDS011;6553;48.412;9.514;2023-06-24T02:40:39;3.67;;;3.38;;
12976;SDS011;6553;48.412;9.514;2023-06-24T02:43:07;4.03;;;3.08;;
12976;SDS011;6553;48.412;9.514;2023-06-24T02:45:33;3.53;;;3.03;;
12976;SDS011;6553;48.412;9.514;2023-06-24T02:47:59;3.65;;;3.35;;
12976;SDS011;6553;48.412;9.514;2023-06-24T02:50:25;7.20;;;3.83;;
12976;SDS011;6553;48.412;9.514;2023-06-24T02:52:53;7.20;;;3.45;;
12976;SDS011;6553;48.412;9.514;2023-06-24T02:55:24;6.97;;;3.35;;
12976;SDS011;6553;48.412;9.514;2023-06-24T02:57:57;7.40;;;3.28;;
12976;SDS011;6553;48.412;9.514;2023-06-24T03:00:23;3.95;;;3.53;;
12976;SDS011;6553;48.412;9.514;2023-06-24T03:03:13;3.75;;;3.45;;
12976;SDS011;6553;48.412;9.514;2023-06-24T03:05:45;4.03;;;3.22;;
12976;SDS011;6553;48.412;9.514;2023-06-24T03:08:16;5.75;;;3.65;;
12976;SDS011;6553;48.412;9.514;2023-06-24T03:10:44;4.00;;;3.50;;
12976;SDS011;6553;48.412;9.514;2023-06-24T03:13:16;4.93;;;3.00;;
12976;SDS011;6553;48.412;9.514;2023-06-24T03:15:45;5.40;;;3.40;;
12976;SDS011;6553;48.412;9.514;2023-06-24T03:18:12;6.25;;;3.63;;
12976;SDS011;6553;48.412;9.514;2023-06-24T03:20:38;9.98;;;3.40;;
12976;SDS011;6553;48.412;9.514;2023-06-24T03:23:08;5.20;;;3.75;;
12976;SDS011;6553;48.412;9.514;2023-06-24T03:25:36;4.13;;;2.92;;
12976;SDS011;6553;48.412;9.514;2023-06-24T03:28:02;5.15;;;3.42;;
12976;SDS011;6553;48.412;9.514;2023-06-24T03:30:36;3.63;;;2.88;;
12976;SDS011;6553;48.412;9.514;2023-06-24T03:33:02;3.35;;;3.00;;
12976;SDS011;6553;48.412;9.514;2023-06-24T03:35:31;3.40;;;3.10;;
12976;SDS011;6553;48.412;9.514;2023-06-24T03:38:01;3.08;;;2.83;;
12976;SDS011;6553;48.412;9.514;2023-06-24T03:40:28;3.75;;;3.13;;
12976;SDS011;6553;48.412;9.514;2023-06-24T03:42:55;3.63;;;3.30;;
12976;SDS011;6553;48.412;9.514;2023-06-24T03:45:21;6.47;;;2.65;;
12976;SDS011;6553;48.412;9.514;2023-06-24T03:47:46;3.83;;;3.00;;
12976;SDS011;6553;48.412;9.514;2023-06-24T03:50:12;7.05;;;3.33;;
12976;SDS011;6553;48.412;9.514;2023-06-24T03:52:38;4.20;;;3.45;;
12976;SDS011;6553;48.412;9.514;2023-06-24T03:55:05;4.45;;;3.10;;
12976;SDS011;6553;48.412;9.514;2023-06-24T03:57:31;3.65;;;2.97;;
12976;SDS011;6553;48.412;9.514;2023-06-24T03:59:58;3.28;;;2.90;;
12976;SDS011;6553;48.412;9.514;2023-06-24T04:02:23;3.88;;;3.28;;
12976;SDS011;6553;48.412;9.514;2023-06-24T04:04:50;3.63;;;3.25;;
12976;SDS011;6553;48.412;9.514;2023-06-24T04:07:16;3.45;;;3.00;;
12976;SDS011;6553;48.412;9.514;2023-06-24T04:09:55;6.25;;;3.47;;
12976;SDS011;6553;48.412;9.514;2023-06-24T04:12:21;5.32;;;3.72;;
12976;SDS011;6553;48.412;9.514;2023-06-24T04:14:47;4.72;;;3.47;;
12976;SDS011;6553;48.412;9.514;2023-06-24T04:17:13;3.38;;;3.08;;
12976;SDS011;6553;48.412;9.514;2023-06-24T04:19:39;4.75;;;3.03;;
12976;SDS011;6553;48.412;9.514;2023-06-24T04:22:05;3.83;;;3.30;;
12976;SDS011;6553;48.412;9.514;2023-06-24T04:24:31;3.00;;;2.80;;
12976;SDS011;6553;48.412;9.514;2023-06-24T04:26:57;4.78;;;3.50;;
12976;SDS011;6553;48.412;9.514;2023-06-24T04:29:23;3.47;;;3.15;;
12976;SDS011;6553;48.412;9.514;2023-06-24T04:31:49;3.78;;;3.38;;
12976;SDS011;6553;48.412;9.514;2023-06-24T04:34:15;3.53;;;3.13;;
12976;SDS011;6553;48.412;9.514;2023-06-24T04:36:41;4.05;;;3.17;;
12976;SDS011;6553;48.412;9.514;2023-06-24T04:39:07;3.40;;;3.03;;
12976;SDS011;6553;48.412;9.514;2023-06-24T04:41:34;5.20;;;3.35;;
12976;SDS011;6553;48.412;9.514;2023-06-24T04:43:59;4.20;;;3.28;;
12976;SDS011;6553;48.412;9.514;2023-06-24T04:46:25;6.60;;;3.38;;
12976;SDS011;6553;48.412;9.514;2023-06-24T04:48:51;3.08;;;2.88;;
12976;SDS011;6553;48.412;9.514;2023-06-24T04:51:16;5.95;;;3.13;;
12976;SDS011;6553;48.412;9.514;2023-06-24T04:53:42;5.00;;;3.10;;
12976;SDS011;6553;48.412;9.514;2023-06-24T04:56:08;3.20;;;2.90;;
12976;SDS011;6553;48.412;9.514;2023-06-24T04:58:34;3.45;;;3.05;;
12976;SDS011;6553;48.412;9.514;2023-06-24T05:00:59;3.17;;;2.70;;
12976;SDS011;6553;48.412;9.514;2023-06-24T05:03:25;3.53;;;3.22;;
12976;SDS011;6553;48.412;9.514;2023-06-24T05:05:51;3.92;;;3.50;;
12976;SDS011;6553;48.412;9.514;2023-06-24T05:08:17;3.47;;;3.17;;
12976;SDS011;6553;48.412;9.514;2023-06-24T05:10:43;3.88;;;3.28;;
12976;SDS011;6553;48.412;9.514;2023-06-24T05:13:09;7.05;;;3.53;;
12976;SDS011;6553;48.412;9.514;2023-06-24T05:15:34;8.77;;;3.42;;
12976;SDS011;6553;48.412;9.514;2023-06-24T05:18:00;4.07;;;3.63;;
12976;SDS011;6553;48.412;9.514;2023-06-24T05:20:26;7.90;;;3.58;;
12976;SDS011;6553;48.412;9.514;2023-06-24T05:22:52;5.75;;;3.50;;
12976;SDS011;6553;48.412;9.514;2023-06-24T05:25:20;6.45;;;3.40;;
12976;SDS011;6553;48.412;9.514;2023-06-24T05:27:45;3.88;;;3.53;;
12976;SDS011;6553;48.412;9.514;2023-06-24T05:30:11;4.22;;;3.50;;
12976;SDS011;6553;48.412;9.514;2023-06-24T05:32:38;4.10;;;3.30;;
12976;SDS011;6553;48.412;9.514;2023-06-24T05:35:04;3.75;;;3.25;;
12976;SDS011;6553;48.412;9.514;2023-06-24T05:37:30;5.22;;;3.15;;
12976;SDS011;6553;48.412;9.514;2023-06-24T05:39:56;4.43;;;3.83;;
12976;SDS011;6553;48.412;9.514;2023-06-24T05:42:22;4.18;;;3.33;;
12976;SDS011;6553;48.412;9.514;2023-06-24T05:44:48;6.63;;;3.30;;
12976;SDS011;6553;48.412;9.514;2023-06-24T05:47:14;7.43;;;3.65;;
12976;SDS011;6553;48.412;9.514;2023-06-24T05:49:40;4.28;;;3.10;;
12976;SDS011;6553;48.412;9.514;2023-06-24T05:52:06;3.78;;;3.20;;
12976;SDS011;6553;48.412;9.514;2023-06-24T05:54:32;3.95;;;3.55;;
12976;SDS011;6553;48.412;9.514;2023-06-24T05:56:57;3.72;;;3.22;;
12976;SDS011;6553;48.412;9.514;2023-06-24T05:59:23;9.32;;;3.67;;
12976;SDS011;6553;48.412;9.514;2023-06-24T06:01:49;6.07;;;3.13;;
12976;SDS011;6553;48.412;9.514;2023-06-24T06:04:15;6.13;;;3.42;;
12976;SDS011;6553;48.412;9.514;2023-06-24T06:06:40;5.88;;;3.35;;
12976;SDS011;6553;48.412;9.514;2023-06-24T06:09:06;6.45;;;3.38;;
12976;SDS011;6553;48.412;9.514;2023-06-24T06:11:32;11.10;;;3.50;;
12976;SDS011;6553;48.412;9.514;2023-06-24T06:13:58;6.13;;;3.53;;
12976;SDS011;6553;48.412;9.514;2023-06-24T06:16:24;8.55;;;3.30;;
12976;SDS011;6553;48.412;9.514;2023-06-24T06:18:50;5.88;;;3.45;;
12976;SDS011;6553;48.412;9.514;2023-06-24T06:21:16;8.43;;;3.78;;
12976;SDS011;6553;48.412;9.514;2023-06-24T06:23:42;5.43;;;3.42;;
12976;SDS011;6553;48.412;9.514;2023-06-24T06:26:07;18.48;;;4.57;;
12976;SDS011;6553;48.412;9.514;2023-06-24T06:28:34;8.32;;;3.17;;
12976;SDS011;6553;48.412;9.514;2023-06-24T06:30:59;5.95;;;3.38;;
12976;SDS011;6553;48.412;9.514;2023-06-24T06:33:25;4.35;;;3.50;;
12976;SDS011;6553;48.412;9.514;2023-06-24T06:35:51;7.55;;;3.58;;
12976;SDS011;6553;48.412;9.514;2023-06-24T06:38:17;5.70;;;3.53;;
12976;SDS011;6553;48.412;9.514;2023-06-24T06:40:42;7.57;;;3.55;;
12976;SDS011;6553;48.412;9.514;2023-06-24T06:43:08;4.20;;;3.50;;
12976;SDS011;6553;48.412;9.514;2023-06-24T06:45:34;6.60;;;3.30;;
12976;SDS011;6553;48.412;9.514;2023-06-24T06:48:01;4.15;;;3.45;;
12976;SDS011;6553;48.412;9.514;2023-06-24T06:50:30;5.25;;;3.58;;
12976;SDS011;6553;48.412;9.514;2023-06-24T06:52:56;4.07;;;3.40;;
12976;SDS011;6553;48.412;9.514;2023-06-24T06:55:22;4.65;;;3.28;;
12976;SDS011;6553;48.412;9.514;2023-06-24T06:57:47;5.88;;;3.35;;
12976;SDS011;6553;48.412;9.514;2023-06-24T07:00:13;4.63;;;3.28;;
12976;SDS011;6553;48.412;9.514;2023-06-24T07:02:39;3.40;;;3.10;;
12976;SDS011;6553;48.412;9.514;2023-06-24T07:05:05;3.58;;;3.28;;
12976;SDS011;6553;48.412;9.514;2023-06-24T07:07:31;9.63;;;3.47;;
12976;SDS011;6553;48.412;9.514;2023-06-24T07:09:57;12.23;;;4.30;;
12976;SDS011;6553;48.412;9.514;2023-06-24T07:12:23;12.15;;;3.63;;
12976;SDS011;6553;48.412;9.514;2023-06-24T07:14:50;7.38;;;3.53;;
12976;SDS011;6553;48.412;9.514;2023-06-24T07:17:16;6.38;;;3.65;;
12976;SDS011;6553;48.412;9.514;2023-06-24T07:19:42;8.68;;;3.53;;
12976;SDS011;6553;48.412;9.514;2023-06-24T07:22:07;7.97;;;3.45;;
12976;SDS011;6553;48.412;9.514;2023-06-24T07:24:33;8.05;;;3.63;;
12976;SDS011;6553;48.412;9.514;2023-06-24T07:26:59;9.65;;;3.72;;
12976;SDS011;6553;48.412;9.514;2023-06-24T07:29:25;5.95;;;3.40;;
12976;SDS011;6553;48.412;9.514;2023-06-24T07:31:50;5.13;;;3.70;;
12976;SDS011;6553;48.412;9.514;2023-06-24T07:34:16;4.90;;;3.30;;
12976;SDS011;6553;48.412;9.514;2023-06-24T07:36:42;4.40;;;3.15;;
12976;SDS011;6553;48.412;9.514;2023-06-24T07:39:08;4.38;;;3.47;;
12976;SDS011;6553;48.412;9.514;2023-06-24T07:41:33;5.65;;;3.53;;
12976;SDS011;6553;48.412;9.514;2023-06-24T07:43:59;5.57;;;3.42;;
12976;SDS011;6553;48.412;9.514;2023-06-24T07:46:25;3.55;;;3.13;;
12976;SDS011;6553;48.412;9.514;2023-06-24T07:48:53;4.05;;;3.33;;
12976;SDS011;6553;48.412;9.514;2023-06-24T07:51:19;4.05;;;3.17;;
12976;SDS011;6553;48.412;9.514;2023-06-24T07:53:45;4.30;;;3.28;;
12976;SDS011;6553;48.412;9.514;2023-06-24T07:56:11;4.65;;;4.00;;
12976;SDS011;6553;48.412;9.514;2023-06-24T07:58:36;3.72;;;2.97;;
12976;SDS011;6553;48.412;9.514;2023-06-24T08:01:03;4.63;;;3.33;;
12976;SDS011;6553;48.412;9.514;2023-06-24T08:03:29;3.78;;;2.75;;
12976;SDS011;6553;48.412;9.514;2023-06-24T08:05:55;6.70;;;3.08;;
12976;SDS011;6553;48.412;9.514;2023-06-24T08:08:21;4.43;;;3.25;;
12976;SDS011;6553;48.412;9.514;2023-06-24T08:10:47;4.22;;;2.92;;
12976;SDS011;6553;48.412;9.514;2023-06-24T08:13:13;4.85;;;3.17;;
12976;SDS011;6553;48.412;9.514;2023-06-24T08:15:39;4.80;;;2.90;;
12976;SDS011;6553;48.412;9.514;2023-06-24T08:18:05;3.30;;;3.00;;
12976;SDS011;6553;48.412;9.514;2023-06-24T08:20:30;4.53;;;3.53;;
12976;SDS011;6553;48.412;9.514;2023-06-24T08:22:56;3.03;;;2.75;;
12976;SDS011;6553;48.412;9.514;2023-06-24T08:25:22;5.05;;;3.60;;
12976;SDS011;6553;48.412;9.514;2023-06-24T08:27:48;5.43;;;3.40;;
12976;SDS011;6553;48.412;9.514;2023-06-24T08:30:13;3.25;;;2.83;;
12976;SDS011;6553;48.412;9.514;2023-06-24T08:32:40;4.90;;;3.55;;
12976;SDS011;6553;48.412;9.514;2023-06-24T08:35:07;5.57;;;3.47;;
12976;SDS011;6553;48.412;9.514;2023-06-24T08:37:34;4.90;;;3.40;;
12976;SDS011;6553;48.412;9.514;2023-06-24T08:40:01;7.20;;;4.57;;
12976;SDS011;6553;48.412;9.514;2023-06-24T08:42:29;9.10;;;5.30;;
12976;SDS011;6553;48.412;9.514;2023-06-24T08:44:55;6.78;;;4.65;;
12976;SDS011;6553;48.412;9.514;2023-06-24T08:47:22;5.53;;;4.60;;
12976;SDS011;6553;48.412;9.514;2023-06-24T08:49:53;4.45;;;3.70;;
12976;SDS011;6553;48.412;9.514;2023-06-24T08:52:36;6.55;;;3.75;;
12976;SDS011;6553;48.412;9.514;2023-06-24T08:55:04;4.38;;;3.92;;
12976;SDS011;6553;48.412;9.514;2023-06-24T08:57:32;4.60;;;4.10;;
12976;SDS011;6553;48.412;9.514;2023-06-24T08:59:58;4.63;;;3.60;;
12976;SDS011;6553;48.412;9.514;2023-06-24T09:02:24;4.72;;;4.15;;
12976;SDS011;6553;48.412;9.514;2023-06-24T09:04:50;3.95;;;3.65;;
12976;SDS011;6553;48.412;9.514;2023-06-24T09:07:25;4.53;;;4.13;;
12976;SDS011;6553;48.412;9.514;2023-06-24T09:09:53;4.18;;;3.55;;
12976;SDS011;6553;48.412;9.514;2023-06-24T09:12:19;4.95;;;3.67;;
12976;SDS011;6553;48.412;9.514;2023-06-24T09:14:48;3.80;;;3.50;;
12976;SDS011;6553;48.412;9.514;2023-06-24T09:17:15;4.70;;;3.80;;
12976;SDS011;6553;48.412;9.514;2023-06-24T09:19:42;3.80;;;3.40;;
12976;SDS011;6553;48.412;9.514;2023-06-24T09:22:09;4.35;;;3.95;;
12976;SDS011;6553;48.412;9.514;2023-06-24T09:24:43;3.90;;;3.35;;
12976;SDS011;6553;48.412;9.514;2023-06-24T09:27:17;3.83;;;3.35;;
12976;SDS011;6553;48.412;9.514;2023-06-24T09:29:47;3.58;;;3.20;;
12976;SDS011;6553;48.412;9.514;2023-06-24T09:32:13;5.30;;;3.95;;
12976;SDS011;6553;48.412;9.514;2023-06-24T09:34:39;3.65;;;3.35;;
12976;SDS011;6553;48.412;9.514;2023-06-24T09:37:05;3.80;;;3.40;;
12976;SDS011;6553;48.412;9.514;2023-06-24T09:39:38;4.60;;;4.20;;
12976;SDS011;6553;48.412;9.514;2023-06-24T09:42:05;4.18;;;3.80;;
12976;SDS011;6553;48.412;9.514;2023-06-24T09:44:32;4.75;;;3.70;;
12976;SDS011;6553;48.412;9.514;2023-06-24T09:46:59;3.80;;;3.50;;
12976;SDS011;6553;48.412;9.514;2023-06-24T09:49:24;3.70;;;3.40;;
12976;SDS011;6553;48.412;9.514;2023-06-24T09:51:55;4.20;;;3.42;;
12976;SDS011;6553;48.412;9.514;2023-06-24T09:54:24;4.40;;;3.65;;
12976;SDS011;6553;48.412;9.514;2023-06-24T09:56:53;4.93;;;3.78;;
12976;SDS011;6553;48.412;9.514;2023-06-24T09:59:21;3.58;;;3.28;;
12976;SDS011;6553;48.412;9.514;2023-06-24T10:01:49;3.40;;;3.03;;
12976;SDS011;6553;48.412;9.514;2023-06-24T10:04:19;3.90;;;3.50;;
12976;SDS011;6553;48.412;9.514;2023-06-24T10:06:49;3.58;;;3.28;;
12976;SDS011;6553;48.412;9.514;2023-06-24T10:09:15;3.85;;;3.33;;
12976;SDS011;6553;48.412;9.514;2023-06-24T10:11:46;4.07;;;3.65;;
12976;SDS011;6553;48.412;9.514;2023-06-24T10:14:13;3.70;;;3.40;;
12976;SDS011;6553;48.412;9.514;2023-06-24T10:16:43;3.75;;;3.33;;
12976;SDS011;6553;48.412;9.514;2023-06-24T10:19:09;4.63;;;3.50;;
12976;SDS011;6553;48.412;9.514;2023-06-24T10:21:54;4.25;;;3.08;;
12976;SDS011;6553;48.412;9.514;2023-06-24T10:29:45;3.65;;;3.35;;
12976;SDS011;6553;48.412;9.514;2023-06-24T10:32:12;3.45;;;3.15;;
12976;SDS011;6553;48.412;9.514;2023-06-24T10:40:01;3.70;;;3.40;;
12976;SDS011;6553;48.412;9.514;2023-06-24T10:42:28;3.53;;;3.22;;
12976;SDS011;6553;48.412;9.514;2023-06-24T10:47:35;3.63;;;3.20;;
12976;SDS011;6553;48.412;9.514;2023-06-24T10:50:07;3.28;;;3.00;;
12976;SDS011;6553;48.412;9.514;2023-06-24T10:52:39;4.10;;;3.70;;
12976;SDS011;6553;48.412;9.514;2023-06-24T10:55:08;2.90;;;2.70;;
12976;SDS011;6553;48.412;9.514;2023-06-24T10:57:34;3.30;;;3.00;;
12976;SDS011;6553;48.412;9.514;2023-06-24T11:00:02;3.83;;;2.95;;
12976;SDS011;6553;48.412;9.514;2023-06-24T11:02:29;3.60;;;3.30;;
12976;SDS011;6553;48.412;9.514;2023-06-24T11:04:57;3.88;;;3.28;;
12976;SDS011;6553;48.412;9.514;2023-06-24T11:07:26;3.53;;;3.22;;
12976;SDS011;6553;48.412;9.514;2023-06-24T11:09:56;3.42;;;3.13;;
12976;SDS011;6553;48.412;9.514;2023-06-24T11:12:51;3.60;;;3.13;;
12976;SDS011;6553;48.412;9.514;2023-06-24T11:15:17;4.50;;;3.00;;
12976;SDS011;6553;48.412;9.514;2023-06-24T11:17:44;3.70;;;3.40;;
12976;SDS011;6553;48.412;9.514;2023-06-24T11:20:13;3.63;;;3.33;;
12976;SDS011;6553;48.412;9.514;2023-06-24T11:22:40;3.58;;;3.28;;
12976;SDS011;6553;48.412;9.514;2023-06-24T11:25:14;3.35;;;2.90;;
12976;SDS011;6553;48.412;9.514;2023-06-24T11:27:52;3.28;;;2.97;;
12976;SDS011;6553;48.412;9.514;2023-06-24T11:30:18;3.30;;;3.00;;
12976;SDS011;6553;48.412;9.514;2023-06-24T11:32:44;2.90;;;2.70;;
12976;SDS011;6553;48.412;9.514;2023-06-24T11:35:11;3.38;;;3.17;;
12976;SDS011;6553;48.412;9.514;2023-06-24T11:37:45;3.30;;;3.00;;
12976;SDS011;6553;48.412;9.514;2023-06-24T11:40:13;3.53;;;3.22;;
12976;SDS011;6553;48.412;9.514;2023-06-24T11:42:42;4.47;;;3.13;;
12976;SDS011;6553;48.412;9.514;2023-06-24T11:45:10;3.00;;;2.80;;
12976;SDS011;6553;48.412;9.514;2023-06-24T11:47:39;3.42;;;3.13;;
12976;SDS011;6553;48.412;9.514;2023-06-24T11:50:05;2.95;;;2.75;;
12976;SDS011;6553;48.412;9.514;2023-06-24T11:55:01;3.03;;;2.83;;
12976;SDS011;6553;48.412;9.514;2023-06-24T12:00:19;3.53;;;3.22;;
12976;SDS011;6553;48.412;9.514;2023-06-24T12:03:07;2.90;;;2.67;;
12976;SDS011;6553;48.412;9.514;2023-06-24T12:05:35;3.47;;;3.20;;
12976;SDS011;6553;48.412;9.514;2023-06-24T12:10:30;3.40;;;3.10;;
12976;SDS011;6553;48.412;9.514;2023-06-24T12:13:02;2.97;;;2.78;;
12976;SDS011;6553;48.412;9.514;2023-06-24T12:15:31;2.70;;;2.45;;
12976;SDS011;6553;48.412;9.514;2023-06-24T12:17:57;2.80;;;2.60;;
12976;SDS011;6553;48.412;9.514;2023-06-24T12:20:24;3.08;;;2.78;;
12976;SDS011;6553;48.412;9.514;2023-06-24T12:22:51;3.42;;;3.13;;
12976;SDS011;6553;48.412;9.514;2023-06-24T12:25:17;3.40;;;3.10;;
12976;SDS011;6553;48.412;9.514;2023-06-24T12:27:43;3.38;;;3.08;;
12976;SDS011;6553;48.412;9.514;2023-06-24T12:30:09;3.47;;;3.17;;
12976;SDS011;6553;48.412;9.514;2023-06-24T12:32:36;3.50;;;3.20;;
12976;SDS011;6553;48.412;9.514;2023-06-24T12:35:03;3.00;;;2.80;;
12976;SDS011;6553;48.412;9.514;2023-06-24T12:37:30;2.95;;;2.72;;
12976;SDS011;6553;48.412;9.514;2023-06-24T12:39:57;3.67;;;3.38;;
12976;SDS011;6553;48.412;9.514;2023-06-24T12:42:24;3.30;;;3.00;;
12976;SDS011;6553;48.412;9.514;2023-06-24T12:44:51;3.17;;;2.97;;
12976;SDS011;6553;48.412;9.514;2023-06-24T12:47:17;2.95;;;2.75;;
12976;SDS011;6553;48.412;9.514;2023-06-24T12:49:44;3.00;;;2.80;;
12976;SDS011;6553;48.412;9.514;2023-06-24T12:52:09;3.53;;;3.08;;
12976;SDS011;6553;48.412;9.514;2023-06-24T12:54:35;3.10;;;2.80;;
12976;SDS011;6553;48.412;9.514;2023-06-24T12:57:01;3.22;;;2.92;;
12976;SDS011;6553;48.412;9.514;2023-06-24T12:59:27;3.65;;;2.80;;
12976;SDS011;6553;48.412;9.514;2023-06-24T13:01:53;3.22;;;3.03;;
12976;SDS011;6553;48.412;9.514;2023-06-24T13:04:19;3.05;;;2.65;;
12976;SDS011;6553;48.412;9.514;2023-06-24T13:06:46;2.80;;;2.60;;
12976;SDS011;6553;48.412;9.514;2023-06-24T13:09:13;3.30;;;3.08;;
12976;SDS011;6553;48.412;9.514;2023-06-24T13:11:39;3.00;;;2.80;;
12976;SDS011;6553;48.412;9.514;2023-06-24T13:14:05;3.13;;;2.92;;
12976;SDS011;6553;48.412;9.514;2023-06-24T13:16:31;2.92;;;2.72;;
12976;SDS011;6553;48.412;9.514;2023-06-24T13:18:57;2.92;;;2.72;;
12976;SDS011;6553;48.412;9.514;2023-06-24T13:21:23;3.67;;;3.38;;
12976;SDS011;6553;48.412;9.514;2023-06-24T13:23:49;3.10;;;2.90;;
12976;SDS011;6553;48.412;9.514;2023-06-24T13:26:15;3.20;;;3.00;;
12976;SDS011;6553;48.412;9.514;2023-06-24T13:28:41;3.05;;;2.75;;
12976;SDS011;6553;48.412;9.514;2023-06-24T13:31:07;2.70;;;2.50;;
12976;SDS011;6553;48.412;9.514;2023-06-24T13:33:33;2.95;;;2.75;;
12976;SDS011;6553;48.412;9.514;2023-06-24T13:35:58;3.58;;;2.63;;
12976;SDS011;6553;48.412;9.514;2023-06-24T13:38:24;2.90;;;2.70;;
12976;SDS011;6553;48.412;9.514;2023-06-24T13:40:50;3.42;;;3.13;;
12976;SDS011;6553;48.412;9.514;2023-06-24T13:43:16;3.30;;;3.00;;
12976;SDS011;6553;48.412;9.514;2023-06-24T13:45:41;3.00;;;2.80;;
12976;SDS011;6553;48.412;9.514;2023-06-24T13:48:07;3.17;;;2.97;;
12976;SDS011;6553;48.412;9.514;2023-06-24T13:50:33;3.03;;;2.80;;
12976;SDS011;6553;48.412;9.514;2023-06-24T13:52:59;3.60;;;3.28;;
12976;SDS011;6553;48.412;9.514;2023-06-24T13:55:24;3.30;;;3.00;;
12976;SDS011;6553;48.412;9.514;2023-06-24T13:57:50;3.03;;;2.83;;
12976;SDS011;6553;48.412;9.514;2023-06-24T14:00:16;3.00;;;2.80;;
12976;SDS011;6553;48.412;9.514;2023-06-24T14:02:43;3.00;;;2.80;;
12976;SDS011;6553;48.412;9.514;2023-06-24T14:05:08;2.90;;;2.58;;
12976;SDS011;6553;48.412;9.514;2023-06-24T14:07:34;3.28;;;2.97;;
12976;SDS011;6553;48.412;9.514;2023-06-24T14:10:00;3.13;;;2.92;;
12976;SDS011;6553;48.412;9.514;2023-06-24T14:12:26;3.05;;;2.85;;
12976;SDS011;6553;48.412;9.514;2023-06-24T14:14:52;2.97;;;2.78;;
12976;SDS011;6553;48.412;9.514;2023-06-24T14:17:17;3.33;;;3.03;;
12976;SDS011;6553;48.412;9.514;2023-06-24T14:19:43;3.38;;;3.08;;
12976;SDS011;6553;48.412;9.514;2023-06-24T14:22:09;3.20;;;3.00;;
12976;SDS011;6553;48.412;9.514;2023-06-24T14:24:35;3.25;;;2.97;;
12976;SDS011;6553;48.412;9.514;2023-06-24T14:27:03;2.83;;;2.63;;
12976;SDS011;6553;48.412;9.514;2023-06-24T14:29:31;3.33;;;3.03;;
12976;SDS011;6553;48.412;9.514;2023-06-24T14:31:57;2.88;;;2.67;;
12976;SDS011;6553;48.412;9.514;2023-06-24T14:34:23;3.25;;;2.92;;
12976;SDS011;6553;48.412;9.514;2023-06-24T14:36:48;3.50;;;3.20;;
12976;SDS011;6553;48.412;9.514;2023-06-24T14:39:14;2.90;;;2.70;;
12976;SDS011;6553;48.412;9.514;2023-06-24T14:41:42;2.90;;;2.70;;
12976;SDS011;6553;48.412;9.514;2023-06-24T14:44:09;2.72;;;2.53;;
12976;SDS011;6553;48.412;9.514;2023-06-24T14:46:34;3.05;;;2.85;;
12976;SDS011;6553;48.412;9.514;2023-06-24T14:49:00;3.40;;;3.17;;
12976;SDS011;6553;48.412;9.514;2023-06-24T14:51:26;3.10;;;2.80;;
12976;SDS011;6553;48.412;9.514;2023-06-24T14:53:51;3.08;;;2.88;;
12976;SDS011;6553;48.412;9.514;2023-06-24T14:56:17;2.95;;;2.75;;
12976;SDS011;6553;48.412;9.514;2023-06-24T14:58:43;3.40;;;3.10;;
12976;SDS011;6553;48.412;9.514;2023-06-24T15:01:09;3.03;;;2.72;;
12976;SDS011;6553;48.412;9.514;2023-06-24T15:03:34;3.30;;;3.00;;
12976;SDS011;6553;48.412;9.514;2023-06-24T15:06:00;2.90;;;2.70;;
12976;SDS011;6553;48.412;9.514;2023-06-24T15:08:26;3.22;;;2.95;;
12976;SDS011;6553;48.412;9.514;2023-06-24T15:10:52;3.40;;;3.10;;
12976;SDS011;6553;48.412;9.514;2023-06-24T15:13:18;3.03;;;2.83;;
12976;SDS011;6553;48.412;9.514;2023-06-24T15:15:44;3.05;;;2.75;;
12976;SDS011;6553;48.412;9.514;2023-06-24T15:18:10;3.17;;;2.97;;
12976;SDS011;6553;48.412;9.514;2023-06-24T15:20:36;3.05;;;2.85;;
12976;SDS011;6553;48.412;9.514;2023-06-24T15:23:02;2.85;;;2.65;;
12976;SDS011;6553;48.412;9.514;2023-06-24T15:25:28;3.45;;;3.15;;
12976;SDS011;6553;48.412;9.514;2023-06-24T15:27:54;4.88;;;3.53;;
12976;SDS011;6553;48.412;9.514;2023-06-24T15:30:20;3.33;;;3.03;;
12976;SDS011;6553;48.412;9.514;2023-06-24T15:32:46;3.40;;;3.10;;
12976;SDS011;6553;48.412;9.514;2023-06-24T15:35:12;2.97;;;2.78;;